createdAt,value
2017-12-20T00:02:12.632Z,14.43
2017-12-20T00:04:40.152Z,16.35
2017-12-20T00:07:07.652Z,14.18
2017-12-20T00:09:35.149Z,14.07
2017-12-20T00:12:02.638Z,15.80
2017-12-20T00:14:30.155Z,15.55
2017-12-20T00:16:57.655Z,15.15
2017-12-20T00:19:25.153Z,17.12
2017-12-20T00:21:53.412Z,14.18
2017-12-20T00:24:20.919Z,15.38
2017-12-20T00:26:48.434Z,13.93
2017-12-20T00:29:16.730Z,15.02
2017-12-20T00:31:44.981Z,16.17
2017-12-20T00:34:12.487Z,15.30
2017-12-20T00:36:39.999Z,14.27
2017-12-20T00:39:07.516Z,14.30
2017-12-20T00:41:35.007Z,15.10
2017-12-20T00:44:02.518Z,13.45
2017-12-20T00:46:30.011Z,13.98
2017-12-20T00:48:57.528Z,14.38
2017-12-20T00:51:25.015Z,14.65
2017-12-20T00:53:52.531Z,13.07
2017-12-20T00:56:20.017Z,13.50
2017-12-20T00:58:47.523Z,12.55
2017-12-20T01:01:15.033Z,11.18
2017-12-20T01:03:42.552Z,11.12
2017-12-20T01:06:10.819Z,12.05
2017-12-20T01:08:38.330Z,11.80
2017-12-20T01:11:05.827Z,11.12
2017-12-20T01:13:33.343Z,11.65
2017-12-20T01:16:00.848Z,11.25
2017-12-20T01:18:28.373Z,9.98
2017-12-20T01:20:55.882Z,9.93
2017-12-20T01:23:24.164Z,11.00
2017-12-20T01:25:52.531Z,10.30
2017-12-20T01:28:20.819Z,10.45
2017-12-20T01:30:48.325Z,9.93
2017-12-20T01:33:15.819Z,9.90
2017-12-20T01:35:44.099Z,10.90
2017-12-20T01:38:12.355Z,9.07
2017-12-20T01:40:39.884Z,9.48
2017-12-20T01:43:07.370Z,9.05
2017-12-20T01:45:34.858Z,9.15
2017-12-20T01:48:03.131Z,8.75
2017-12-20T01:50:31.837Z,8.52
2017-12-20T01:52:59.344Z,7.85
2017-12-20T01:55:26.933Z,8.65
2017-12-20T01:57:55.180Z,7.95
2017-12-20T02:00:22.686Z,8.85
2017-12-20T02:02:50.188Z,8.35
2017-12-20T02:05:17.702Z,8.73
2017-12-20T02:07:45.200Z,8.20
2017-12-20T02:10:12.698Z,9.00
2017-12-20T02:12:40.985Z,8.48
2017-12-20T02:15:08.488Z,8.23
2017-12-20T02:17:36.015Z,7.70
2017-12-20T02:20:03.517Z,7.72
2017-12-20T02:22:31.002Z,7.72
2017-12-20T02:24:59.270Z,7.00
2017-12-20T02:27:27.536Z,7.30
2017-12-20T02:29:55.047Z,7.95
2017-12-20T02:32:22.597Z,8.68
2017-12-20T02:34:50.097Z,7.72
2017-12-20T02:37:17.594Z,7.85
2017-12-20T02:39:45.866Z,7.95
2017-12-20T02:42:14.881Z,8.15
2017-12-20T02:44:42.385Z,7.47
2017-12-20T02:47:09.926Z,7.22
2017-12-20T02:49:37.401Z,8.57
2017-12-20T02:52:04.903Z,7.10
2017-12-20T02:54:32.423Z,6.95
2017-12-20T02:56:59.919Z,7.87
2017-12-20T02:59:27.415Z,8.68
2017-12-20T03:01:55.048Z,8.30
2017-12-20T03:04:22.603Z,10.18
2017-12-20T03:06:50.128Z,9.13
2017-12-20T03:09:17.612Z,9.05
2017-12-20T03:11:45.184Z,10.75
2017-12-20T03:14:13.462Z,11.65
2017-12-20T03:16:40.965Z,10.38
2017-12-20T03:19:08.492Z,11.95
2017-12-20T03:21:36.001Z,9.02
2017-12-20T03:24:04.268Z,9.93
2017-12-20T03:26:32.556Z,10.30
2017-12-20T03:29:00.867Z,11.50
2017-12-20T03:31:28.378Z,11.35
2017-12-20T03:33:55.883Z,11.75
2017-12-20T03:36:23.397Z,9.68
2017-12-20T03:38:50.917Z,8.52
2017-12-20T03:41:18.402Z,9.27
2017-12-20T03:43:45.929Z,9.32
2017-12-20T03:46:13.408Z,8.70
2017-12-20T03:48:40.893Z,10.60
2017-12-20T03:51:09.176Z,8.80
2017-12-20T03:53:37.443Z,8.88
2017-12-20T03:56:05.739Z,10.40
2017-12-20T03:58:33.230Z,8.50
2017-12-20T04:01:00.728Z,9.23
2017-12-20T04:03:28.227Z,9.75
2017-12-20T04:05:55.724Z,9.90
2017-12-20T04:08:23.238Z,10.20
2017-12-20T04:10:50.753Z,11.02
2017-12-20T04:13:18.261Z,11.35
2017-12-20T04:15:45.765Z,11.93
2017-12-20T04:18:13.264Z,9.10
2017-12-20T04:20:40.774Z,9.43
2017-12-20T04:23:08.263Z,9.65
2017-12-20T04:25:36.541Z,11.05
2017-12-20T04:28:04.828Z,9.48
2017-12-20T04:30:32.998Z,9.65
2017-12-20T04:33:00.525Z,10.60
2017-12-20T04:35:28.009Z,10.95
2017-12-20T04:37:56.276Z,11.30
2017-12-20T04:40:24.550Z,12.27
2017-12-20T04:42:52.824Z,10.65
2017-12-20T04:45:21.124Z,11.90
2017-12-20T04:47:48.631Z,12.55
2017-12-20T04:50:16.173Z,12.52
2017-12-20T04:52:43.654Z,12.40
2017-12-20T04:55:11.142Z,12.18
2017-12-20T04:57:39.422Z,12.60
2017-12-20T05:00:07.697Z,12.10
2017-12-20T05:02:35.945Z,12.77
2017-12-20T05:05:03.467Z,11.95
2017-12-20T05:07:30.977Z,14.27
2017-12-20T05:09:58.882Z,13.88
2017-12-20T05:12:26.418Z,13.95
2017-12-20T05:14:53.921Z,12.75
2017-12-20T05:17:21.826Z,13.75
2017-12-20T05:19:50.142Z,13.30
2017-12-20T05:22:18.067Z,13.02
2017-12-20T05:24:45.558Z,15.23
2017-12-20T05:27:13.064Z,15.15
2017-12-20T05:29:40.580Z,14.07
2017-12-20T05:32:08.073Z,16.15
2017-12-20T05:34:35.586Z,14.65
2017-12-20T05:37:03.069Z,15.93
2017-12-20T05:39:30.568Z,15.57
2017-12-20T05:41:58.071Z,14.30
2017-12-20T05:44:25.562Z,14.25
2017-12-20T05:46:53.078Z,15.90
2017-12-20T05:49:20.566Z,16.08
2017-12-20T05:51:48.060Z,15.38
2017-12-20T05:54:15.558Z,15.65
2017-12-20T05:56:43.059Z,16.17
2017-12-20T05:59:10.575Z,15.65
2017-12-20T06:01:38.085Z,16.02
2017-12-20T06:04:05.599Z,17.27
2017-12-20T06:06:33.102Z,15.85
2017-12-20T06:09:00.609Z,15.93
2017-12-20T06:11:28.118Z,16.25
2017-12-20T06:13:55.607Z,15.93
2017-12-20T06:16:23.111Z,15.00
2017-12-20T06:18:50.741Z,15.77
2017-12-20T06:21:18.244Z,16.05
2017-12-20T06:23:47.266Z,16.27
2017-12-20T06:26:15.541Z,15.18
2017-12-20T06:28:43.799Z,15.93
2017-12-20T06:31:11.316Z,16.35
2017-12-20T06:33:38.851Z,16.80
2017-12-20T06:36:06.366Z,17.70
2017-12-20T06:38:33.853Z,15.10
2017-12-20T06:41:02.116Z,17.17
2017-12-20T06:43:30.381Z,15.15
2017-12-20T06:45:57.889Z,15.75
2017-12-20T06:48:25.444Z,17.50
2017-12-20T06:50:52.934Z,15.82
2017-12-20T06:53:20.441Z,17.23
2017-12-20T06:55:47.964Z,16.80
2017-12-20T06:58:15.468Z,15.63
2017-12-20T07:00:43.000Z,16.08
2017-12-20T07:03:11.295Z,16.48
2017-12-20T07:05:38.869Z,17.87
2017-12-20T07:08:06.420Z,16.58
2017-12-20T07:10:33.906Z,15.75
2017-12-20T07:13:01.431Z,15.05
2017-12-20T07:15:28.936Z,15.93
2017-12-20T07:17:56.444Z,17.30
2017-12-20T07:20:23.950Z,15.38
2017-12-20T07:22:51.442Z,15.80
2017-12-20T07:25:19.740Z,16.17
2017-12-20T07:27:48.021Z,15.02
2017-12-20T07:30:15.510Z,14.38
2017-12-20T07:32:43.037Z,14.68
2017-12-20T07:35:10.540Z,13.77
2017-12-20T07:37:38.059Z,15.32
2017-12-20T07:40:05.573Z,14.80
2017-12-20T07:42:33.888Z,12.93
2017-12-20T07:45:01.403Z,12.82
2017-12-20T07:47:29.714Z,12.88
2017-12-20T07:49:57.221Z,13.50
2017-12-20T07:52:24.729Z,12.45
2017-12-20T07:54:52.218Z,11.50
2017-12-20T07:57:19.725Z,11.20
2017-12-20T07:59:48.017Z,12.60
2017-12-20T08:02:16.307Z,11.68
2017-12-20T08:04:43.802Z,13.40
2017-12-20T08:07:11.334Z,13.15
2017-12-20T08:09:38.834Z,13.05
2017-12-20T08:12:07.114Z,12.30
2017-12-20T08:14:34.638Z,11.77
2017-12-20T08:17:02.121Z,10.60
2017-12-20T08:19:29.614Z,10.15
2017-12-20T08:21:57.886Z,10.10
2017-12-20T08:24:26.137Z,10.25
2017-12-20T08:26:53.642Z,9.48
2017-12-20T08:29:21.125Z,8.05
2017-12-20T08:31:48.605Z,8.65
2017-12-20T08:34:16.116Z,8.32
2017-12-20T08:36:43.606Z,7.15
2017-12-20T08:39:11.122Z,7.07
2017-12-20T08:41:38.613Z,14.77
2017-12-20T08:44:06.116Z,8.70
2017-12-20T08:46:34.404Z,7.10
2017-12-20T08:49:02.677Z,8.05
2017-12-20T08:51:30.954Z,7.45
2017-12-20T08:53:59.214Z,6.60
2017-12-20T08:56:27.462Z,6.22
2017-12-20T08:58:54.994Z,6.50
2017-12-20T09:01:22.482Z,5.60
2017-12-20T09:03:50.008Z,5.25
2017-12-20T09:06:17.545Z,4.40
2017-12-20T09:08:45.032Z,5.18
2017-12-20T09:11:12.534Z,4.80
2017-12-20T09:13:40.018Z,5.15
2017-12-20T09:16:07.527Z,4.32
2017-12-20T09:18:35.029Z,4.95
2017-12-20T09:21:03.278Z,5.50
2017-12-20T09:23:30.837Z,5.20
2017-12-20T09:25:59.121Z,5.93
2017-12-20T09:28:27.402Z,5.68
2017-12-20T09:30:55.654Z,6.68
2017-12-20T09:33:23.141Z,5.57
2017-12-20T09:35:51.410Z,6.50
2017-12-20T09:38:19.666Z,6.30
2017-12-20T09:40:47.189Z,6.05
2017-12-20T09:43:14.677Z,5.95
2017-12-20T09:45:42.223Z,7.32
2017-12-20T09:48:10.549Z,5.15
2017-12-20T09:50:38.046Z,4.90
2017-12-20T09:53:05.573Z,6.80
2017-12-20T09:55:33.075Z,5.50
2017-12-20T09:58:00.572Z,5.13
2017-12-20T10:00:28.860Z,5.40
2017-12-20T10:02:56.362Z,5.10
2017-12-20T10:05:23.883Z,7.57
2017-12-20T10:07:51.374Z,5.00
2017-12-20T10:10:18.866Z,5.40
2017-12-20T10:12:46.387Z,7.55
2017-12-20T10:15:13.881Z,6.10
2017-12-20T10:17:41.393Z,11.82
2017-12-20T10:20:08.882Z,6.25
2017-12-20T10:22:36.388Z,8.73
2017-12-20T10:25:03.894Z,7.95
2017-12-20T10:27:31.382Z,7.75
2017-12-20T10:29:59.703Z,8.68
2017-12-20T10:32:27.209Z,6.80
2017-12-20T10:34:55.475Z,9.55
2017-12-20T10:37:23.750Z,9.10
2017-12-20T10:39:51.368Z,9.00
2017-12-20T10:42:18.920Z,9.52
2017-12-20T10:44:46.416Z,10.23
2017-12-20T10:47:13.928Z,9.60
2017-12-20T10:49:41.482Z,8.93
2017-12-20T10:52:08.991Z,9.15
2017-12-20T10:54:36.519Z,10.50
2017-12-20T10:57:04.057Z,10.10
2017-12-20T10:59:31.558Z,12.27
2017-12-20T11:01:59.154Z,12.63
2017-12-20T11:04:27.432Z,12.73
2017-12-20T11:06:55.718Z,11.98
2017-12-20T11:09:23.992Z,10.50
2017-12-20T11:11:52.246Z,10.48
2017-12-20T11:14:19.773Z,15.15
2017-12-20T11:16:47.275Z,12.48
2017-12-20T11:19:15.577Z,17.05
2017-12-20T11:21:43.078Z,14.48
2017-12-20T11:24:10.592Z,13.15
2017-12-20T11:26:38.102Z,14.85
2017-12-20T11:29:05.608Z,13.70
2017-12-20T11:31:33.941Z,12.75
2017-12-20T11:34:01.452Z,13.25
2017-12-20T11:36:28.964Z,14.60
2017-12-20T11:38:56.470Z,14.80
2017-12-20T11:41:23.963Z,15.77
2017-12-20T11:43:51.491Z,15.27
2017-12-20T11:46:19.004Z,15.30
2017-12-20T11:48:47.265Z,14.38
2017-12-20T11:51:14.769Z,16.50
2017-12-20T11:53:42.323Z,21.62
2017-12-20T11:56:09.858Z,17.10
2017-12-20T11:58:38.131Z,18.23
2017-12-20T12:01:06.391Z,20.05
2017-12-20T12:03:33.912Z,19.67
2017-12-20T12:06:01.416Z,21.10
2017-12-20T12:08:28.951Z,18.75
2017-12-20T12:10:56.446Z,20.77
2017-12-20T12:13:24.719Z,21.40
2017-12-20T12:15:53.004Z,20.35
2017-12-20T12:18:21.304Z,21.90
2017-12-20T12:20:48.830Z,21.45
2017-12-20T12:23:17.104Z,23.92
2017-12-20T12:25:45.384Z,21.73
2017-12-20T12:28:13.670Z,24.92
2017-12-20T12:30:41.930Z,25.77
2017-12-20T12:33:10.209Z,26.33
2017-12-20T12:35:38.591Z,27.17
2017-12-20T12:38:06.867Z,33.65
2017-12-20T12:40:35.155Z,30.42
2017-12-20T12:43:03.433Z,30.08
2017-12-20T12:45:30.946Z,28.80
2017-12-20T12:47:58.452Z,30.75
2017-12-20T12:50:25.980Z,29.87
2017-12-20T12:52:53.475Z,30.33
2017-12-20T12:55:20.987Z,31.27
2017-12-20T12:57:48.581Z,30.75
2017-12-20T13:00:16.102Z,33.72
2017-12-20T13:02:44.380Z,31.10
2017-12-20T13:05:11.883Z,32.13
2017-12-20T13:07:39.400Z,38.90
2017-12-20T13:10:06.894Z,30.83
2017-12-20T13:12:34.439Z,35.20
2017-12-20T13:15:02.717Z,31.60
2017-12-20T13:17:30.996Z,33.80
2017-12-20T13:19:59.284Z,31.95
2017-12-20T13:22:26.796Z,29.12
2017-12-20T13:24:54.310Z,39.00
2017-12-20T13:27:21.860Z,34.45
2017-12-20T13:29:49.374Z,32.75
2017-12-20T13:32:16.988Z,29.95
2017-12-20T13:34:44.480Z,33.65
2017-12-20T13:37:11.994Z,29.10
2017-12-20T13:39:39.476Z,32.72
2017-12-20T13:42:06.982Z,32.40
2017-12-20T13:44:35.241Z,31.98
2017-12-20T13:47:02.883Z,31.98
2017-12-20T13:49:30.506Z,31.60
2017-12-20T13:51:58.050Z,33.28
2017-12-20T13:54:26.324Z,32.13
2017-12-20T13:56:54.620Z,31.40
2017-12-20T13:59:22.128Z,26.73
2017-12-20T14:01:49.689Z,27.50
2017-12-20T14:04:17.184Z,30.08
2017-12-20T14:06:44.673Z,69.20
2017-12-20T14:09:12.204Z,31.37
2017-12-20T14:11:39.712Z,35.08
2017-12-20T14:14:07.230Z,29.73
2017-12-20T14:16:34.801Z,28.65
2017-12-20T14:19:02.308Z,28.87
2017-12-20T14:21:29.920Z,30.05
2017-12-20T14:23:57.465Z,27.80
2017-12-20T14:26:24.973Z,25.80
2017-12-20T14:28:52.504Z,27.33
2017-12-20T14:31:20.008Z,24.92
2017-12-20T14:33:47.516Z,26.27
2017-12-20T14:36:15.017Z,28.15
2017-12-20T14:38:42.519Z,30.37
2017-12-20T14:41:10.053Z,30.37
2017-12-20T14:43:38.324Z,30.62
2017-12-20T14:46:06.586Z,31.30
2017-12-20T14:48:34.110Z,32.50
2017-12-20T14:51:01.640Z,32.50
2017-12-20T14:53:29.138Z,29.30
2017-12-20T14:55:56.634Z,29.10
2017-12-20T14:58:24.920Z,30.75
2017-12-20T15:00:52.423Z,30.37
2017-12-20T15:03:19.921Z,29.95
2017-12-20T15:05:48.195Z,27.52
2017-12-20T15:08:16.487Z,27.13
2017-12-20T15:10:44.750Z,27.85
2017-12-20T15:13:13.005Z,25.55
2017-12-20T15:15:40.527Z,28.00
2017-12-20T15:18:08.031Z,26.75
2017-12-20T15:20:35.565Z,28.05
2017-12-20T15:23:03.062Z,26.30
2017-12-20T15:25:31.344Z,27.52
2017-12-20T15:27:59.641Z,28.33
2017-12-20T15:30:27.129Z,27.67
2017-12-20T15:32:54.641Z,28.35
2017-12-20T15:35:22.916Z,28.20
2017-12-20T15:37:51.193Z,28.10
2017-12-20T15:40:18.721Z,32.58
2017-12-20T15:42:46.214Z,28.98
2017-12-20T15:45:13.729Z,28.70
2017-12-20T15:47:41.231Z,28.77
2017-12-20T15:50:08.727Z,29.98
2017-12-20T15:52:36.248Z,31.20
2017-12-20T15:55:03.760Z,28.35
2017-12-20T15:57:31.297Z,29.90
2017-12-20T15:59:58.809Z,29.42
2017-12-20T16:02:27.099Z,26.80
2017-12-20T16:04:54.619Z,28.02
2017-12-20T16:07:22.128Z,28.65
2017-12-20T16:09:49.641Z,29.92
2017-12-20T16:12:17.136Z,27.25
2017-12-20T16:14:44.644Z,27.25
2017-12-20T16:17:12.172Z,28.52
2017-12-20T16:19:39.666Z,26.77
2017-12-20T16:22:07.271Z,23.98
2017-12-20T16:24:34.767Z,22.80
2017-12-20T16:27:02.259Z,23.65
2017-12-20T16:29:30.557Z,24.02
2017-12-20T16:31:58.054Z,24.10
2017-12-20T16:34:25.583Z,23.90
2017-12-20T16:36:53.134Z,23.83
2017-12-20T16:39:20.635Z,22.98
2017-12-20T16:41:48.160Z,23.83
2017-12-20T16:44:15.680Z,27.50
2017-12-20T16:46:44.200Z,28.50
2017-12-20T16:49:11.703Z,33.58
2017-12-20T16:51:39.312Z,27.50
2017-12-20T16:54:06.826Z,31.00
2017-12-20T16:56:34.322Z,46.10
2017-12-20T16:59:01.850Z,50.50
2017-12-20T17:01:30.133Z,50.05
2017-12-20T17:03:58.413Z,47.75
2017-12-20T17:06:26.690Z,39.70
2017-12-20T17:08:54.945Z,38.67
2017-12-20T17:11:22.476Z,38.55
2017-12-20T17:13:49.984Z,43.22
2017-12-20T17:16:18.252Z,55.53
2017-12-20T17:18:46.552Z,72.35
2017-12-20T17:21:14.052Z,71.72
2017-12-20T17:23:41.585Z,56.03
2017-12-20T17:26:09.082Z,41.40
2017-12-20T17:28:36.578Z,37.60
2017-12-20T17:31:04.100Z,33.28
2017-12-20T17:33:31.694Z,34.38
2017-12-20T17:35:59.992Z,33.42
2017-12-20T17:38:27.485Z,35.38
2017-12-20T17:40:54.979Z,31.98
2017-12-20T17:43:23.272Z,33.55
2017-12-20T17:45:50.792Z,34.25
2017-12-20T17:48:18.308Z,33.35
2017-12-20T17:50:45.815Z,32.08
2017-12-20T17:53:13.306Z,31.75
2017-12-20T17:55:40.858Z,30.08
2017-12-20T17:58:08.354Z,28.73
2017-12-20T18:00:35.874Z,26.90
2017-12-20T18:03:03.385Z,23.42
2017-12-20T18:05:30.883Z,23.52
2017-12-20T18:07:59.179Z,24.23
2017-12-20T18:10:26.671Z,27.95
2017-12-20T18:12:54.216Z,26.37
2017-12-20T18:15:21.712Z,25.42
2017-12-20T18:17:49.225Z,25.52
2017-12-20T18:20:16.732Z,27.50
2017-12-20T18:22:44.244Z,25.60
2017-12-20T18:25:11.762Z,25.33
2017-12-20T18:27:40.083Z,25.48
2017-12-20T18:30:07.630Z,23.67
2017-12-20T18:32:35.136Z,24.15
2017-12-20T18:35:02.631Z,26.12
2017-12-20T18:37:30.137Z,25.27
2017-12-20T18:39:57.662Z,24.48
2017-12-20T18:42:25.199Z,23.48
2017-12-20T18:44:52.729Z,22.23
2017-12-20T18:47:20.334Z,21.55
2017-12-20T18:49:47.888Z,21.15
2017-12-20T18:52:15.396Z,21.73
2017-12-20T18:54:42.928Z,21.25
2017-12-20T18:57:10.426Z,21.67
2017-12-20T18:59:37.936Z,21.35
2017-12-20T19:02:05.479Z,22.55
2017-12-20T19:04:32.978Z,21.87
2017-12-20T19:07:00.489Z,22.95
2017-12-20T19:09:28.001Z,25.67
2017-12-20T19:11:55.489Z,29.35
2017-12-20T19:14:23.797Z,31.10
2017-12-20T19:16:51.353Z,35.80
2017-12-20T19:19:18.884Z,38.03
2017-12-20T19:21:47.159Z,37.90
2017-12-20T19:24:15.418Z,38.70
2017-12-20T19:26:42.926Z,39.53
2017-12-20T19:29:10.417Z,39.47
2017-12-20T19:31:37.956Z,36.53
2017-12-20T19:34:05.454Z,36.83
2017-12-20T19:36:33.733Z,38.35
2017-12-20T19:39:02.016Z,38.15
2017-12-20T19:41:30.296Z,39.90
2017-12-20T19:43:58.581Z,39.60
2017-12-20T19:46:26.077Z,42.28
2017-12-20T19:48:53.589Z,37.50
2017-12-20T19:51:21.865Z,38.60
2017-12-20T19:53:50.143Z,38.90
2017-12-20T19:56:17.675Z,38.60
2017-12-20T19:58:45.169Z,39.42
2017-12-20T20:01:12.675Z,39.42
2017-12-20T20:03:40.189Z,37.30
2017-12-20T20:06:07.745Z,36.50
2017-12-20T20:08:35.304Z,38.97
2017-12-20T20:11:02.811Z,40.30
2017-12-20T20:13:30.312Z,36.60
2017-12-20T20:15:58.594Z,36.85
2017-12-20T20:18:26.116Z,34.85
2017-12-20T20:20:53.678Z,35.42
2017-12-20T20:23:21.170Z,39.28
2017-12-20T20:25:48.682Z,38.63
2017-12-20T20:28:16.193Z,34.28
2017-12-20T20:30:43.710Z,35.83
2017-12-20T20:33:12.011Z,37.25
2017-12-20T20:35:40.302Z,37.22
2017-12-20T20:38:07.806Z,37.63
2017-12-20T20:40:35.319Z,43.20
2017-12-20T20:43:02.832Z,40.92
2017-12-20T20:45:30.368Z,38.30
2017-12-20T20:47:57.881Z,46.30
2017-12-20T20:50:26.159Z,39.60
2017-12-20T20:52:54.452Z,39.92
2017-12-20T20:55:21.968Z,36.95
2017-12-20T20:57:50.272Z,38.90
2017-12-20T21:00:18.565Z,38.97
2017-12-20T21:02:46.131Z,38.38
2017-12-20T21:05:13.684Z,34.25
2017-12-20T21:07:41.194Z,35.83
2017-12-20T21:10:08.736Z,35.42
2017-12-20T21:12:36.250Z,36.22
2017-12-20T21:15:03.815Z,36.22
2017-12-20T21:17:31.345Z,36.72
2017-12-20T21:19:58.866Z,36.53
2017-12-20T21:22:26.401Z,36.25
2017-12-20T21:24:53.959Z,37.00
2017-12-20T21:27:21.468Z,34.95
2017-12-20T21:29:49.179Z,36.13
2017-12-20T21:32:16.696Z,36.60
2017-12-20T21:34:44.991Z,36.97
2017-12-20T21:37:12.490Z,37.47
2017-12-20T21:39:39.989Z,38.15
2017-12-20T21:42:08.306Z,36.20
2017-12-20T21:44:35.798Z,38.03
2017-12-20T21:47:03.336Z,35.25
2017-12-20T21:49:30.830Z,34.90
2017-12-20T21:51:59.099Z,35.20
2017-12-20T21:54:26.613Z,33.15
2017-12-20T21:56:54.192Z,33.22
2017-12-20T21:59:21.709Z,32.90
2017-12-20T22:01:49.984Z,32.78
2017-12-20T22:04:17.499Z,32.88
2017-12-20T22:06:45.102Z,32.58
2017-12-20T22:09:12.616Z,31.90
2017-12-20T22:11:40.146Z,31.92
2017-12-20T22:14:07.665Z,32.90
2017-12-20T22:16:35.936Z,31.60
2017-12-20T22:19:04.246Z,32.55
2017-12-20T22:21:31.761Z,28.48
2017-12-20T22:23:59.363Z,34.20
2017-12-20T22:26:26.872Z,28.15
2017-12-20T22:28:54.385Z,30.92
2017-12-20T22:31:21.892Z,29.83
2017-12-20T22:33:50.926Z,31.20
2017-12-20T22:36:18.472Z,29.65
2017-12-20T22:38:46.734Z,29.83
2017-12-20T22:41:14.995Z,30.35
2017-12-20T22:43:42.613Z,30.15
2017-12-20T22:46:10.130Z,31.02
2017-12-20T22:48:38.415Z,30.20
2017-12-20T22:51:06.749Z,29.55
2017-12-20T22:53:34.257Z,29.12
2017-12-20T22:56:01.788Z,27.60
2017-12-20T22:58:29.296Z,28.67
2017-12-20T23:00:56.815Z,30.70
2017-12-20T23:03:25.099Z,28.60
2017-12-20T23:05:53.358Z,27.05
2017-12-20T23:08:20.943Z,24.37
2017-12-20T23:10:49.193Z,29.37
2017-12-20T23:13:18.208Z,27.20
2017-12-20T23:15:46.473Z,24.98
2017-12-20T23:18:14.725Z,27.35
2017-12-20T23:20:42.233Z,25.52
2017-12-20T23:23:09.781Z,26.33
2017-12-20T23:25:37.311Z,26.65
2017-12-20T23:28:04.828Z,24.83
2017-12-20T23:30:34.269Z,27.58
2017-12-20T23:33:01.795Z,26.83
2017-12-20T23:35:29.333Z,28.42
2017-12-20T23:37:56.885Z,28.87
2017-12-20T23:40:24.381Z,26.35
2017-12-20T23:42:51.916Z,26.23
2017-12-20T23:45:19.473Z,27.17
2017-12-20T23:47:47.025Z,26.50
2017-12-20T23:50:14.543Z,25.75
2017-12-20T23:52:42.029Z,27.40
2017-12-20T23:55:09.525Z,24.37
2017-12-20T23:57:37.034Z,24.15
